sensor_id;sensor_type;location;lat;lon;timestamp;P1;durP1;ratioP1;P2;durP2;ratioP2
84818;SDS011;75053;51.080;13.712;2024-01-15T00:00:51;10.53;;;6.57;;
84818;SDS011;75053;51.080;13.712;2024-01-15T00:03:17;13.90;;;6.53;;
84818;SDS011;75053;51.080;13.712;2024-01-15T00:05:43;6.80;;;4.60;;
84818;SDS011;75053;51.080;13.712;2024-01-15T00:08:09;14.00;;;6.07;;
84818;SDS011;75053;51.080;13.712;2024-01-15T00:10:34;11.47;;;6.17;;
84818;SDS011;75053;51.080;13.712;2024-01-15T00:13:00;14.10;;;7.80;;
84818;SDS011;75053;51.080;13.712;2024-01-15T00:15:26;12.53;;;7.17;;
84818;SDS011;75053;51.080;13.712;2024-01-15T00:17:53;11.33;;;6.70;;
84818;SDS011;75053;51.080;13.712;2024-01-15T00:20:19;10.93;;;6.60;;
84818;SDS011;75053;51.080;13.712;2024-01-15T00:22:44;11.63;;;5.77;;
84818;SDS011;75053;51.080;13.712;2024-01-15T00:25:10;14.67;;;6.90;;
84818;SDS011;75053;51.080;13.712;2024-01-15T00:27:35;11.90;;;6.30;;
84818;SDS011;75053;51.080;13.712;2024-01-15T00:30:04;11.97;;;6.87;;
84818;SDS011;75053;51.080;13.712;2024-01-15T00:32:30;9.07;;;5.67;;
84818;SDS011;75053;51.080;13.712;2024-01-15T00:34:55;13.13;;;6.87;;
84818;SDS011;75053;51.080;13.712;2024-01-15T00:37:21;11.83;;;6.40;;
84818;SDS011;75053;51.080;13.712;2024-01-15T00:39:47;11.00;;;5.83;;
84818;SDS011;75053;51.080;13.712;2024-01-15T00:42:13;12.10;;;6.13;;
84818;SDS011;75053;51.080;13.712;2024-01-15T00:44:38;10.57;;;6.53;;
84818;SDS011;75053;51.080;13.712;2024-01-15T00:47:04;14.37;;;6.90;;
84818;SDS011;75053;51.080;13.712;2024-01-15T00:49:29;9.87;;;6.13;;
84818;SDS011;75053;51.080;13.712;2024-01-15T00:51:55;14.87;;;7.73;;
84818;SDS011;75053;51.080;13.712;2024-01-15T00:54:20;14.77;;;7.67;;
84818;SDS011;75053;51.080;13.712;2024-01-15T00:56:46;15.73;;;6.40;;
84818;SDS011;75053;51.080;13.712;2024-01-15T00:59:11;15.40;;;7.10;;
84818;SDS011;75053;51.080;13.712;2024-01-15T01:01:40;7.97;;;6.00;;
84818;SDS011;75053;51.080;13.712;2024-01-15T01:04:08;17.20;;;7.60;;
84818;SDS011;75053;51.080;13.712;2024-01-15T01:06:36;16.93;;;6.97;;
84818;SDS011;75053;51.080;13.712;2024-01-15T01:09:01;11.43;;;6.93;;
84818;SDS011;75053;51.080;13.712;2024-01-15T01:11:27;13.23;;;7.07;;
84818;SDS011;75053;51.080;13.712;2024-01-15T01:13:52;11.57;;;6.57;;
84818;SDS011;75053;51.080;13.712;2024-01-15T01:16:20;11.63;;;6.87;;
84818;SDS011;75053;51.080;13.712;2024-01-15T01:18:45;9.63;;;6.30;;
84818;SDS011;75053;51.080;13.712;2024-01-15T01:21:11;13.37;;;6.77;;
84818;SDS011;75053;51.080;13.712;2024-01-15T01:23:36;11.73;;;6.23;;
84818;SDS011;75053;51.080;13.712;2024-01-15T01:26:02;17.27;;;8.17;;
84818;SDS011;75053;51.080;13.712;2024-01-15T01:28:28;11.60;;;7.33;;
84818;SDS011;75053;51.080;13.712;2024-01-15T01:30:53;11.13;;;7.23;;
84818;SDS011;75053;51.080;13.712;2024-01-15T01:33:19;12.73;;;7.23;;
84818;SDS011;75053;51.080;13.712;2024-01-15T01:35:44;9.97;;;5.70;;
84818;SDS011;75053;51.080;13.712;2024-01-15T01:38:11;12.60;;;7.03;;
84818;SDS011;75053;51.080;13.712;2024-01-15T01:40:37;16.57;;;8.83;;
84818;SDS011;75053;51.080;13.712;2024-01-15T01:43:04;14.20;;;7.97;;
84818;SDS011;75053;51.080;13.712;2024-01-15T01:45:30;15.67;;;7.17;;
84818;SDS011;75053;51.080;13.712;2024-01-15T01:47:55;17.13;;;8.07;;
84818;SDS011;75053;51.080;13.712;2024-01-15T01:50:21;16.17;;;8.33;;
84818;SDS011;75053;51.080;13.712;2024-01-15T01:52:47;13.27;;;6.57;;
84818;SDS011;75053;51.080;13.712;2024-01-15T01:55:13;12.33;;;6.73;;
84818;SDS011;75053;51.080;13.712;2024-01-15T01:57:39;13.50;;;7.83;;
84818;SDS011;75053;51.080;13.712;2024-01-15T02:00:06;16.67;;;7.33;;
84818;SDS011;75053;51.080;13.712;2024-01-15T02:02:33;14.80;;;7.83;;
84818;SDS011;75053;51.080;13.712;2024-01-15T02:08:21;11.23;;;6.83;;
84818;SDS011;75053;51.080;13.712;2024-01-15T02:10:46;12.37;;;7.27;;
84818;SDS011;75053;51.080;13.712;2024-01-15T02:13:12;12.67;;;7.20;;
84818;SDS011;75053;51.080;13.712;2024-01-15T02:15:38;11.60;;;6.90;;
84818;SDS011;75053;51.080;13.712;2024-01-15T02:18:04;15.00;;;7.07;;
84818;SDS011;75053;51.080;13.712;2024-01-15T02:20:31;13.07;;;7.10;;
84818;SDS011;75053;51.080;13.712;2024-01-15T02:23:03;11.43;;;6.67;;
84818;SDS011;75053;51.080;13.712;2024-01-15T02:25:45;15.43;;;7.03;;
84818;SDS011;75053;51.080;13.712;2024-01-15T02:28:13;13.87;;;7.07;;
84818;SDS011;75053;51.080;13.712;2024-01-15T02:30:40;12.60;;;6.67;;
84818;SDS011;75053;51.080;13.712;2024-01-15T02:33:07;14.67;;;7.47;;
84818;SDS011;75053;51.080;13.712;2024-01-15T02:35:33;14.50;;;7.37;;
84818;SDS011;75053;51.080;13.712;2024-01-15T02:38:01;13.93;;;7.23;;
84818;SDS011;75053;51.080;13.712;2024-01-15T02:40:27;14.00;;;7.00;;
84818;SDS011;75053;51.080;13.712;2024-01-15T02:42:53;12.23;;;6.63;;
84818;SDS011;75053;51.080;13.712;2024-01-15T02:45:19;15.47;;;8.67;;
84818;SDS011;75053;51.080;13.712;2024-01-15T02:47:44;19.20;;;8.50;;
84818;SDS011;75053;51.080;13.712;2024-01-15T02:50:10;18.70;;;8.20;;
84818;SDS011;75053;51.080;13.712;2024-01-15T02:52:36;12.37;;;6.70;;
84818;SDS011;75053;51.080;13.712;2024-01-15T02:55:01;14.20;;;8.23;;
84818;SDS011;75053;51.080;13.712;2024-01-15T02:57:27;12.67;;;7.13;;
84818;SDS011;75053;51.080;13.712;2024-01-15T02:59:52;17.77;;;9.07;;
84818;SDS011;75053;51.080;13.712;2024-01-15T03:02:23;10.67;;;6.27;;
84818;SDS011;75053;51.080;13.712;2024-01-15T03:04:51;13.93;;;7.43;;
84818;SDS011;75053;51.080;13.712;2024-01-15T03:07:17;17.03;;;8.20;;
84818;SDS011;75053;51.080;13.712;2024-01-15T03:09:43;15.93;;;8.97;;
84818;SDS011;75053;51.080;13.712;2024-01-15T03:12:08;14.40;;;8.07;;
84818;SDS011;75053;51.080;13.712;2024-01-15T03:14:34;14.97;;;8.27;;
84818;SDS011;75053;51.080;13.712;2024-01-15T03:17:01;15.93;;;7.60;;
84818;SDS011;75053;51.080;13.712;2024-01-15T03:19:26;14.73;;;7.20;;
84818;SDS011;75053;51.080;13.712;2024-01-15T03:21:52;17.70;;;7.47;;
84818;SDS011;75053;51.080;13.712;2024-01-15T03:24:18;10.87;;;6.00;;
84818;SDS011;75053;51.080;13.712;2024-01-15T03:26:43;17.13;;;9.33;;
84818;SDS011;75053;51.080;13.712;2024-01-15T03:29:09;14.10;;;8.33;;
84818;SDS011;75053;51.080;13.712;2024-01-15T03:31:34;16.80;;;7.47;;
84818;SDS011;75053;51.080;13.712;2024-01-15T03:34:00;19.67;;;9.33;;
84818;SDS011;75053;51.080;13.712;2024-01-15T03:36:25;18.30;;;9.20;;
84818;SDS011;75053;51.080;13.712;2024-01-15T03:38:51;11.73;;;7.23;;
84818;SDS011;75053;51.080;13.712;2024-01-15T03:41:17;18.00;;;9.87;;
84818;SDS011;75053;51.080;13.712;2024-01-15T03:43:42;15.07;;;8.70;;
84818;SDS011;75053;51.080;13.712;2024-01-15T03:46:08;18.60;;;8.83;;
84818;SDS011;75053;51.080;13.712;2024-01-15T03:48:33;18.97;;;9.33;;
84818;SDS011;75053;51.080;13.712;2024-01-15T03:50:59;19.53;;;10.90;;
84818;SDS011;75053;51.080;13.712;2024-01-15T03:53:25;21.10;;;11.30;;
84818;SDS011;75053;51.080;13.712;2024-01-15T03:55:50;18.90;;;9.13;;
84818;SDS011;75053;51.080;13.712;2024-01-15T03:58:16;15.03;;;9.20;;
84818;SDS011;75053;51.080;13.712;2024-01-15T04:00:42;16.93;;;9.07;;
84818;SDS011;75053;51.080;13.712;2024-01-15T04:03:08;20.00;;;8.80;;
84818;SDS011;75053;51.080;13.712;2024-01-15T04:05:33;19.80;;;10.00;;
84818;SDS011;75053;51.080;13.712;2024-01-15T04:07:59;16.50;;;8.93;;
84818;SDS011;75053;51.080;13.712;2024-01-15T04:10:24;11.00;;;6.73;;
84818;SDS011;75053;51.080;13.712;2024-01-15T04:12:50;18.67;;;9.23;;
84818;SDS011;75053;51.080;13.712;2024-01-15T04:15:16;18.43;;;8.93;;
84818;SDS011;75053;51.080;13.712;2024-01-15T04:17:41;17.87;;;8.30;;
84818;SDS011;75053;51.080;13.712;2024-01-15T04:20:07;18.00;;;8.53;;
84818;SDS011;75053;51.080;13.712;2024-01-15T04:22:33;17.20;;;8.40;;
84818;SDS011;75053;51.080;13.712;2024-01-15T04:25:00;17.90;;;8.93;;
84818;SDS011;75053;51.080;13.712;2024-01-15T04:27:26;13.73;;;7.23;;
84818;SDS011;75053;51.080;13.712;2024-01-15T04:29:51;15.23;;;7.37;;
84818;SDS011;75053;51.080;13.712;2024-01-15T04:32:17;16.20;;;8.47;;
84818;SDS011;75053;51.080;13.712;2024-01-15T04:34:42;15.50;;;8.00;;
84818;SDS011;75053;51.080;13.712;2024-01-15T04:37:08;11.90;;;7.23;;
84818;SDS011;75053;51.080;13.712;2024-01-15T04:39:33;11.93;;;6.60;;
84818;SDS011;75053;51.080;13.712;2024-01-15T04:41:59;16.23;;;8.97;;
84818;SDS011;75053;51.080;13.712;2024-01-15T04:44:24;14.73;;;7.37;;
84818;SDS011;75053;51.080;13.712;2024-01-15T04:46:50;15.43;;;8.23;;
84818;SDS011;75053;51.080;13.712;2024-01-15T04:49:15;13.93;;;6.43;;
84818;SDS011;75053;51.080;13.712;2024-01-15T04:51:41;15.93;;;8.10;;
84818;SDS011;75053;51.080;13.712;2024-01-15T04:54:07;11.10;;;6.23;;
84818;SDS011;75053;51.080;13.712;2024-01-15T04:56:32;12.83;;;7.87;;
84818;SDS011;75053;51.080;13.712;2024-01-15T04:58:58;8.93;;;6.00;;
84818;SDS011;75053;51.080;13.712;2024-01-15T05:01:32;13.57;;;7.07;;
84818;SDS011;75053;51.080;13.712;2024-01-15T05:03:58;13.63;;;6.83;;
84818;SDS011;75053;51.080;13.712;2024-01-15T05:06:24;14.17;;;7.70;;
84818;SDS011;75053;51.080;13.712;2024-01-15T05:08:49;15.73;;;7.83;;
84818;SDS011;75053;51.080;13.712;2024-01-15T05:11:15;16.80;;;8.37;;
84818;SDS011;75053;51.080;13.712;2024-01-15T05:13:40;16.67;;;9.00;;
84818;SDS011;75053;51.080;13.712;2024-01-15T05:16:06;16.70;;;9.33;;
84818;SDS011;75053;51.080;13.712;2024-01-15T05:18:32;18.10;;;8.87;;
84818;SDS011;75053;51.080;13.712;2024-01-15T05:20:57;14.57;;;7.70;;
84818;SDS011;75053;51.080;13.712;2024-01-15T05:23:23;15.03;;;8.30;;
84818;SDS011;75053;51.080;13.712;2024-01-15T05:25:48;16.87;;;8.23;;
84818;SDS011;75053;51.080;13.712;2024-01-15T05:28:14;10.33;;;6.83;;
84818;SDS011;75053;51.080;13.712;2024-01-15T05:30:40;16.87;;;7.17;;
84818;SDS011;75053;51.080;13.712;2024-01-15T05:33:05;16.13;;;7.53;;
84818;SDS011;75053;51.080;13.712;2024-01-15T05:35:32;16.73;;;6.87;;
84818;SDS011;75053;51.080;13.712;2024-01-15T05:37:58;15.60;;;8.97;;
84818;SDS011;75053;51.080;13.712;2024-01-15T05:40:23;14.23;;;6.73;;
84818;SDS011;75053;51.080;13.712;2024-01-15T05:42:49;18.47;;;8.73;;
84818;SDS011;75053;51.080;13.712;2024-01-15T05:45:14;11.20;;;6.70;;
84818;SDS011;75053;51.080;13.712;2024-01-15T05:47:40;15.77;;;8.47;;
84818;SDS011;75053;51.080;13.712;2024-01-15T05:50:05;16.43;;;7.07;;
84818;SDS011;75053;51.080;13.712;2024-01-15T05:52:31;13.60;;;6.23;;
84818;SDS011;75053;51.080;13.712;2024-01-15T05:54:57;14.87;;;8.30;;
84818;SDS011;75053;51.080;13.712;2024-01-15T05:57:23;17.53;;;8.90;;
84818;SDS011;75053;51.080;13.712;2024-01-15T05:59:48;17.63;;;8.37;;
84818;SDS011;75053;51.080;13.712;2024-01-15T06:02:14;19.43;;;7.87;;
84818;SDS011;75053;51.080;13.712;2024-01-15T06:04:40;14.00;;;8.07;;
84818;SDS011;75053;51.080;13.712;2024-01-15T06:07:05;12.23;;;6.57;;
84818;SDS011;75053;51.080;13.712;2024-01-15T06:09:31;15.47;;;8.60;;
84818;SDS011;75053;51.080;13.712;2024-01-15T06:11:56;15.50;;;7.77;;
84818;SDS011;75053;51.080;13.712;2024-01-15T06:14:22;17.63;;;7.80;;
84818;SDS011;75053;51.080;13.712;2024-01-15T06:16:47;12.73;;;7.33;;
84818;SDS011;75053;51.080;13.712;2024-01-15T06:19:12;14.33;;;7.33;;
84818;SDS011;75053;51.080;13.712;2024-01-15T06:21:38;16.43;;;7.57;;
84818;SDS011;75053;51.080;13.712;2024-01-15T06:24:03;14.17;;;6.80;;
84818;SDS011;75053;51.080;13.712;2024-01-15T06:26:29;14.53;;;6.90;;
84818;SDS011;75053;51.080;13.712;2024-01-15T06:28:54;17.67;;;7.70;;
84818;SDS011;75053;51.080;13.712;2024-01-15T06:31:20;16.00;;;7.97;;
84818;SDS011;75053;51.080;13.712;2024-01-15T06:33:51;15.67;;;7.73;;
84818;SDS011;75053;51.080;13.712;2024-01-15T06:36:17;13.40;;;7.20;;
84818;SDS011;75053;51.080;13.712;2024-01-15T06:38:43;11.40;;;6.17;;
84818;SDS011;75053;51.080;13.712;2024-01-15T06:41:09;17.10;;;7.33;;
84818;SDS011;75053;51.080;13.712;2024-01-15T06:43:35;13.23;;;6.70;;
84818;SDS011;75053;51.080;13.712;2024-01-15T06:46:00;13.10;;;7.00;;
84818;SDS011;75053;51.080;13.712;2024-01-15T06:48:26;11.60;;;6.43;;
84818;SDS011;75053;51.080;13.712;2024-01-15T06:50:51;11.30;;;7.23;;
84818;SDS011;75053;51.080;13.712;2024-01-15T06:53:16;10.67;;;6.03;;
84818;SDS011;75053;51.080;13.712;2024-01-15T06:55:45;10.77;;;6.80;;
84818;SDS011;75053;51.080;13.712;2024-01-15T06:58:11;9.27;;;5.33;;
84818;SDS011;75053;51.080;13.712;2024-01-15T07:00:36;13.27;;;5.80;;
84818;SDS011;75053;51.080;13.712;2024-01-15T07:03:02;12.40;;;7.00;;
84818;SDS011;75053;51.080;13.712;2024-01-15T07:05:28;10.47;;;5.63;;
84818;SDS011;75053;51.080;13.712;2024-01-15T07:07:55;10.63;;;4.77;;
84818;SDS011;75053;51.080;13.712;2024-01-15T07:10:20;10.23;;;5.00;;
84818;SDS011;75053;51.080;13.712;2024-01-15T07:12:46;11.53;;;6.83;;
84818;SDS011;75053;51.080;13.712;2024-01-15T07:15:12;11.43;;;7.13;;
84818;SDS011;75053;51.080;13.712;2024-01-15T07:17:37;12.00;;;5.77;;
84818;SDS011;75053;51.080;13.712;2024-01-15T07:20:06;10.63;;;5.97;;
84818;SDS011;75053;51.080;13.712;2024-01-15T07:22:38;10.07;;;6.43;;
84818;SDS011;75053;51.080;13.712;2024-01-15T07:25:04;12.57;;;6.27;;
84818;SDS011;75053;51.080;13.712;2024-01-15T07:27:30;12.63;;;6.43;;
84818;SDS011;75053;51.080;13.712;2024-01-15T07:29:56;12.90;;;5.17;;
84818;SDS011;75053;51.080;13.712;2024-01-15T07:32:22;16.87;;;7.23;;
84818;SDS011;75053;51.080;13.712;2024-01-15T07:34:47;12.23;;;7.30;;
84818;SDS011;75053;51.080;13.712;2024-01-15T07:37:13;14.07;;;6.80;;
84818;SDS011;75053;51.080;13.712;2024-01-15T07:39:39;10.20;;;6.23;;
84818;SDS011;75053;51.080;13.712;2024-01-15T07:42:05;14.43;;;8.63;;
84818;SDS011;75053;51.080;13.712;2024-01-15T07:44:31;12.60;;;6.90;;
84818;SDS011;75053;51.080;13.712;2024-01-15T07:46:56;11.13;;;5.37;;
84818;SDS011;75053;51.080;13.712;2024-01-15T07:49:24;8.10;;;4.63;;
84818;SDS011;75053;51.080;13.712;2024-01-15T07:51:50;9.70;;;5.50;;
84818;SDS011;75053;51.080;13.712;2024-01-15T07:54:15;12.60;;;6.10;;
84818;SDS011;75053;51.080;13.712;2024-01-15T07:56:54;19.20;;;6.93;;
84818;SDS011;75053;51.080;13.712;2024-01-15T07:59:25;11.33;;;5.87;;
84818;SDS011;75053;51.080;13.712;2024-01-15T08:01:51;11.83;;;4.80;;
84818;SDS011;75053;51.080;13.712;2024-01-15T08:04:17;10.17;;;6.07;;
84818;SDS011;75053;51.080;13.712;2024-01-15T08:06:43;13.43;;;6.50;;
84818;SDS011;75053;51.080;13.712;2024-01-15T08:09:08;13.73;;;6.60;;
84818;SDS011;75053;51.080;13.712;2024-01-15T08:11:34;9.83;;;5.20;;
84818;SDS011;75053;51.080;13.712;2024-01-15T08:14:00;13.07;;;6.63;;
84818;SDS011;75053;51.080;13.712;2024-01-15T08:16:26;12.37;;;4.93;;
84818;SDS011;75053;51.080;13.712;2024-01-15T08:18:53;10.80;;;6.30;;
84818;SDS011;75053;51.080;13.712;2024-01-15T08:21:19;13.63;;;6.60;;
84818;SDS011;75053;51.080;13.712;2024-01-15T08:23:44;14.00;;;6.90;;
84818;SDS011;75053;51.080;13.712;2024-01-15T08:26:10;8.63;;;5.13;;
84818;SDS011;75053;51.080;13.712;2024-01-15T08:28:36;14.07;;;6.60;;
84818;SDS011;75053;51.080;13.712;2024-01-15T08:31:01;9.40;;;5.13;;
84818;SDS011;75053;51.080;13.712;2024-01-15T08:33:28;7.80;;;4.93;;
84818;SDS011;75053;51.080;13.712;2024-01-15T08:35:53;14.03;;;7.17;;
84818;SDS011;75053;51.080;13.712;2024-01-15T08:38:19;9.73;;;4.90;;
84818;SDS011;75053;51.080;13.712;2024-01-15T08:40:44;15.77;;;6.07;;
84818;SDS011;75053;51.080;13.712;2024-01-15T08:43:10;11.03;;;5.13;;
84818;SDS011;75053;51.080;13.712;2024-01-15T08:45:35;11.27;;;5.37;;
84818;SDS011;75053;51.080;13.712;2024-01-15T08:48:01;13.20;;;5.13;;
84818;SDS011;75053;51.080;13.712;2024-01-15T08:50:27;13.00;;;6.27;;
84818;SDS011;75053;51.080;13.712;2024-01-15T08:52:52;6.83;;;4.17;;
84818;SDS011;75053;51.080;13.712;2024-01-15T08:55:18;8.83;;;4.80;;
84818;SDS011;75053;51.080;13.712;2024-01-15T08:57:43;16.30;;;6.57;;
84818;SDS011;75053;51.080;13.712;2024-01-15T09:00:09;8.63;;;5.77;;
84818;SDS011;75053;51.080;13.712;2024-01-15T09:02:35;8.47;;;4.67;;
84818;SDS011;75053;51.080;13.712;2024-01-15T09:05:01;12.20;;;6.40;;
84818;SDS011;75053;51.080;13.712;2024-01-15T09:07:29;9.13;;;5.20;;
84818;SDS011;75053;51.080;13.712;2024-01-15T09:09:54;11.13;;;4.97;;
84818;SDS011;75053;51.080;13.712;2024-01-15T09:12:20;13.57;;;6.43;;
84818;SDS011;75053;51.080;13.712;2024-01-15T09:14:47;12.13;;;5.60;;
84818;SDS011;75053;51.080;13.712;2024-01-15T09:17:14;11.80;;;5.30;;
84818;SDS011;75053;51.080;13.712;2024-01-15T09:19:40;12.67;;;6.30;;
84818;SDS011;75053;51.080;13.712;2024-01-15T09:22:06;12.63;;;5.60;;
84818;SDS011;75053;51.080;13.712;2024-01-15T09:24:32;9.37;;;4.07;;
84818;SDS011;75053;51.080;13.712;2024-01-15T09:26:58;6.70;;;4.13;;
84818;SDS011;75053;51.080;13.712;2024-01-15T09:29:24;12.20;;;5.77;;
84818;SDS011;75053;51.080;13.712;2024-01-15T09:31:49;6.70;;;4.20;;
84818;SDS011;75053;51.080;13.712;2024-01-15T09:34:15;12.83;;;5.20;;
84818;SDS011;75053;51.080;13.712;2024-01-15T09:36:41;14.77;;;5.53;;
84818;SDS011;75053;51.080;13.712;2024-01-15T09:39:08;15.23;;;5.80;;
84818;SDS011;75053;51.080;13.712;2024-01-15T09:41:37;7.70;;;3.90;;
84818;SDS011;75053;51.080;13.712;2024-01-15T09:44:03;16.80;;;5.60;;
84818;SDS011;75053;51.080;13.712;2024-01-15T09:46:29;10.70;;;4.40;;
84818;SDS011;75053;51.080;13.712;2024-01-15T09:48:59;9.33;;;4.70;;
84818;SDS011;75053;51.080;13.712;2024-01-15T09:51:26;11.03;;;4.70;;
84818;SDS011;75053;51.080;13.712;2024-01-15T09:53:56;9.60;;;4.27;;
84818;SDS011;75053;51.080;13.712;2024-01-15T09:56:22;8.10;;;3.27;;
84818;SDS011;75053;51.080;13.712;2024-01-15T09:58:48;6.83;;;4.47;;
84818;SDS011;75053;51.080;13.712;2024-01-15T10:01:14;8.90;;;4.67;;
84818;SDS011;75053;51.080;13.712;2024-01-15T10:03:42;7.90;;;3.87;;
84818;SDS011;75053;51.080;13.712;2024-01-15T10:06:08;5.00;;;3.13;;
84818;SDS011;75053;51.080;13.712;2024-01-15T10:08:34;7.50;;;3.87;;
84818;SDS011;75053;51.080;13.712;2024-01-15T10:11:02;11.10;;;4.57;;
84818;SDS011;75053;51.080;13.712;2024-01-15T10:13:30;11.47;;;4.40;;
84818;SDS011;75053;51.080;13.712;2024-01-15T10:15:56;5.17;;;3.77;;
84818;SDS011;75053;51.080;13.712;2024-01-15T10:18:23;10.27;;;4.67;;
84818;SDS011;75053;51.080;13.712;2024-01-15T10:20:49;8.40;;;4.33;;
84818;SDS011;75053;51.080;13.712;2024-01-15T10:23:14;8.70;;;4.80;;
84818;SDS011;75053;51.080;13.712;2024-01-15T10:25:41;10.53;;;4.10;;
84818;SDS011;75053;51.080;13.712;2024-01-15T10:28:07;5.43;;;3.03;;
84818;SDS011;75053;51.080;13.712;2024-01-15T10:30:33;10.10;;;4.80;;
84818;SDS011;75053;51.080;13.712;2024-01-15T10:33:03;7.40;;;4.33;;
84818;SDS011;75053;51.080;13.712;2024-01-15T10:35:32;9.57;;;5.33;;
84818;SDS011;75053;51.080;13.712;2024-01-15T10:37:59;7.77;;;4.40;;
84818;SDS011;75053;51.080;13.712;2024-01-15T10:40:25;10.27;;;5.03;;
84818;SDS011;75053;51.080;13.712;2024-01-15T10:42:51;7.70;;;3.90;;
84818;SDS011;75053;51.080;13.712;2024-01-15T10:45:16;6.97;;;4.07;;
84818;SDS011;75053;51.080;13.712;2024-01-15T10:47:42;7.33;;;4.67;;
84818;SDS011;75053;51.080;13.712;2024-01-15T10:50:09;10.27;;;4.77;;
84818;SDS011;75053;51.080;13.712;2024-01-15T10:52:35;10.20;;;4.30;;
84818;SDS011;75053;51.080;13.712;2024-01-15T10:55:06;8.30;;;4.73;;
84818;SDS011;75053;51.080;13.712;2024-01-15T10:57:36;8.70;;;4.23;;
84818;SDS011;75053;51.080;13.712;2024-01-15T11:00:03;9.37;;;4.53;;
84818;SDS011;75053;51.080;13.712;2024-01-15T11:02:34;11.00;;;4.33;;
84818;SDS011;75053;51.080;13.712;2024-01-15T11:05:02;11.53;;;5.67;;
84818;SDS011;75053;51.080;13.712;2024-01-15T11:07:30;10.57;;;3.97;;
84818;SDS011;75053;51.080;13.712;2024-01-15T11:09:56;10.73;;;5.10;;
84818;SDS011;75053;51.080;13.712;2024-01-15T11:12:26;13.77;;;5.37;;
84818;SDS011;75053;51.080;13.712;2024-01-15T11:15:00;5.47;;;3.73;;
84818;SDS011;75053;51.080;13.712;2024-01-15T11:17:57;10.40;;;4.17;;
84818;SDS011;75053;51.080;13.712;2024-01-15T11:20:27;11.63;;;5.07;;
84818;SDS011;75053;51.080;13.712;2024-01-15T11:22:53;10.43;;;5.13;;
84818;SDS011;75053;51.080;13.712;2024-01-15T11:25:19;11.90;;;4.20;;
84818;SDS011;75053;51.080;13.712;2024-01-15T11:27:48;7.47;;;4.50;;
84818;SDS011;75053;51.080;13.712;2024-01-15T11:30:19;8.97;;;5.17;;
84818;SDS011;75053;51.080;13.712;2024-01-15T11:32:45;9.17;;;5.00;;
84818;SDS011;75053;51.080;13.712;2024-01-15T11:35:12;7.17;;;3.80;;
84818;SDS011;75053;51.080;13.712;2024-01-15T11:43:00;6.57;;;4.47;;
84818;SDS011;75053;51.080;13.712;2024-01-15T11:45:28;6.77;;;3.87;;
84818;SDS011;75053;51.080;13.712;2024-01-15T11:48:14;8.97;;;3.40;;
84818;SDS011;75053;51.080;13.712;2024-01-15T11:53:21;3.87;;;3.33;;
84818;SDS011;75053;51.080;13.712;2024-01-15T11:56:11;10.13;;;4.57;;
84818;SDS011;75053;51.080;13.712;2024-01-15T11:58:43;8.80;;;4.40;;
84818;SDS011;75053;51.080;13.712;2024-01-15T12:01:11;9.63;;;5.10;;
84818;SDS011;75053;51.080;13.712;2024-01-15T12:03:37;7.67;;;5.13;;
84818;SDS011;75053;51.080;13.712;2024-01-15T12:06:06;7.50;;;5.00;;
84818;SDS011;75053;51.080;13.712;2024-01-15T12:08:36;5.17;;;3.93;;
84818;SDS011;75053;51.080;13.712;2024-01-15T12:11:05;9.43;;;4.40;;
84818;SDS011;75053;51.080;13.712;2024-01-15T12:13:39;9.77;;;3.67;;
84818;SDS011;75053;51.080;13.712;2024-01-15T12:16:04;13.57;;;5.60;;
84818;SDS011;75053;51.080;13.712;2024-01-15T12:18:30;7.70;;;5.13;;
84818;SDS011;75053;51.080;13.712;2024-01-15T12:20:56;11.30;;;5.10;;
84818;SDS011;75053;51.080;13.712;2024-01-15T12:23:23;11.57;;;4.63;;
84818;SDS011;75053;51.080;13.712;2024-01-15T12:25:49;5.93;;;3.67;;
84818;SDS011;75053;51.080;13.712;2024-01-15T12:28:18;6.43;;;4.17;;
84818;SDS011;75053;51.080;13.712;2024-01-15T12:30:46;11.50;;;3.53;;
84818;SDS011;75053;51.080;13.712;2024-01-15T12:33:14;10.83;;;3.93;;
84818;SDS011;75053;51.080;13.712;2024-01-15T12:35:42;7.70;;;4.20;;
84818;SDS011;75053;51.080;13.712;2024-01-15T12:38:08;4.93;;;3.43;;
84818;SDS011;75053;51.080;13.712;2024-01-15T12:40:36;6.40;;;4.07;;
84818;SDS011;75053;51.080;13.712;2024-01-15T12:43:02;7.33;;;3.73;;
84818;SDS011;75053;51.080;13.712;2024-01-15T12:45:28;9.93;;;4.13;;
84818;SDS011;75053;51.080;13.712;2024-01-15T12:47:54;9.27;;;4.30;;
84818;SDS011;75053;51.080;13.712;2024-01-15T12:50:25;9.87;;;4.17;;
84818;SDS011;75053;51.080;13.712;2024-01-15T12:52:51;5.90;;;3.60;;
84818;SDS011;75053;51.080;13.712;2024-01-15T12:55:20;9.63;;;3.97;;
84818;SDS011;75053;51.080;13.712;2024-01-15T12:57:45;8.77;;;4.23;;
84818;SDS011;75053;51.080;13.712;2024-01-15T13:00:11;8.40;;;4.17;;
84818;SDS011;75053;51.080;13.712;2024-01-15T13:02:38;8.43;;;4.27;;
84818;SDS011;75053;51.080;13.712;2024-01-15T13:05:05;5.90;;;3.97;;
84818;SDS011;75053;51.080;13.712;2024-01-15T13:07:34;7.07;;;3.77;;
84818;SDS011;75053;51.080;13.712;2024-01-15T13:10:00;5.57;;;3.67;;
84818;SDS011;75053;51.080;13.712;2024-01-15T13:12:25;7.37;;;4.67;;
84818;SDS011;75053;51.080;13.712;2024-01-15T13:14:51;7.30;;;4.73;;
84818;SDS011;75053;51.080;13.712;2024-01-15T13:17:16;10.40;;;4.80;;
84818;SDS011;75053;51.080;13.712;2024-01-15T13:19:42;9.43;;;4.10;;
84818;SDS011;75053;51.080;13.712;2024-01-15T13:22:08;8.23;;;4.87;;
84818;SDS011;75053;51.080;13.712;2024-01-15T13:24:37;8.93;;;4.77;;
84818;SDS011;75053;51.080;13.712;2024-01-15T13:27:04;7.20;;;3.77;;
84818;SDS011;75053;51.080;13.712;2024-01-15T13:29:33;7.83;;;4.00;;
84818;SDS011;75053;51.080;13.712;2024-01-15T13:31:58;9.13;;;4.97;;
84818;SDS011;75053;51.080;13.712;2024-01-15T13:34:24;8.07;;;3.53;;
84818;SDS011;75053;51.080;13.712;2024-01-15T13:36:53;4.60;;;3.57;;
84818;SDS011;75053;51.080;13.712;2024-01-15T13:39:19;7.80;;;5.10;;
84818;SDS011;75053;51.080;13.712;2024-01-15T13:45:10;5.63;;;3.77;;
84818;SDS011;75053;51.080;13.712;2024-01-15T13:47:38;12.80;;;5.63;;
84818;SDS011;75053;51.080;13.712;2024-01-15T13:50:07;9.23;;;4.93;;
84818;SDS011;75053;51.080;13.712;2024-01-15T13:52:32;10.70;;;6.03;;
84818;SDS011;75053;51.080;13.712;2024-01-15T13:54:58;8.03;;;5.50;;
84818;SDS011;75053;51.080;13.712;2024-01-15T13:57:24;15.63;;;4.83;;
84818;SDS011;75053;51.080;13.712;2024-01-15T13:59:49;8.30;;;4.67;;
84818;SDS011;75053;51.080;13.712;2024-01-15T14:02:17;15.27;;;6.03;;
84818;SDS011;75053;51.080;13.712;2024-01-15T14:04:43;9.90;;;4.80;;
84818;SDS011;75053;51.080;13.712;2024-01-15T14:07:08;15.93;;;7.40;;
84818;SDS011;75053;51.080;13.712;2024-01-15T14:09:34;11.03;;;4.73;;
84818;SDS011;75053;51.080;13.712;2024-01-15T14:12:03;8.10;;;4.57;;
84818;SDS011;75053;51.080;13.712;2024-01-15T14:14:29;12.40;;;5.53;;
84818;SDS011;75053;51.080;13.712;2024-01-15T14:16:54;9.93;;;5.10;;
84818;SDS011;75053;51.080;13.712;2024-01-15T14:19:23;11.63;;;4.43;;
84818;SDS011;75053;51.080;13.712;2024-01-15T14:21:49;8.90;;;5.77;;
84818;SDS011;75053;51.080;13.712;2024-01-15T14:24:14;8.17;;;5.27;;
84818;SDS011;75053;51.080;13.712;2024-01-15T14:26:44;11.30;;;5.70;;
84818;SDS011;75053;51.080;13.712;2024-01-15T14:29:09;12.10;;;5.53;;
84818;SDS011;75053;51.080;13.712;2024-01-15T14:31:35;8.40;;;4.17;;
84818;SDS011;75053;51.080;13.712;2024-01-15T14:34:00;6.33;;;4.47;;
84818;SDS011;75053;51.080;13.712;2024-01-15T14:36:28;13.23;;;4.97;;